Time;durP1;ratioP1;P1;durP2;ratioP2;P2;SDS_P1;SDS_P2;PMS_P1;PMS_P2;Temp;Humidity;BMP_temperature;BMP_pressure;BME280_temperature;BME280_humidity;BME280_pressure;Samples;Min_cycle;Max_cycle;Signal;HPM_P1;HPM_P2
2021/10/17 00:01:18;;;;;;;7.38;2.85;;;13.50;67.50;;;;;;5034603;28;20478;-70
2021/10/17 00:03:43;;;;;;;4.20;2.88;;;13.40;83.00;;;;;;5034887;28;20153;-69
2021/10/17 00:06:09;;;;;;;6.60;3.03;;;13.40;77.50;;;;;;5034798;28;20371;-71
2021/10/17 00:08:35;;;;;;;4.63;3.17;;;13.20;62.40;;;;;;5034664;28;20086;-71
2021/10/17 00:11:01;;;;;;;3.70;2.80;;;13.20;62.40;;;;;;5034553;28;20029;-70
2021/10/17 00:13:27;;;;;;;4.07;2.72;;;13.20;62.90;;;;;;5033921;28;20022;-70
2021/10/17 00:15:52;;;;;;;5.57;3.10;;;13.10;63.70;;;;;;5033994;28;20535;-71
2021/10/17 00:18:18;;;;;;;5.35;2.42;;;13.10;63.70;;;;;;5034505;28;20363;-70
2021/10/17 00:20:44;;;;;;;3.47;2.78;;;13.10;63.20;;;;;;5034362;28;20033;-70
2021/10/17 00:23:10;;;;;;;3.65;2.92;;;13.10;63.60;;;;;;5034451;28;20017;-70
2021/10/17 00:25:35;;;;;;;3.75;2.75;;;13.10;63.90;;;;;;5034260;28;20025;-70
2021/10/17 00:28:01;;;;;;;2.97;2.45;;;13.20;79.20;;;;;;5034319;28;20350;-70
2021/10/17 00:30:27;;;;;;;4.82;3.00;;;13.10;63.10;;;;;;5033548;28;20087;-70
2021/10/17 00:32:53;;;;;;;4.70;2.80;;;13.10;65.20;;;;;;5034130;28;20030;-71
2021/10/17 00:35:19;;;;;;;6.20;3.05;;;13.00;63.60;;;;;;5033883;28;20073;-70
2021/10/17 00:37:45;;;;;;;5.03;3.22;;;12.90;63.70;;;;;;5034250;28;20048;-70
2021/10/17 00:40:14;;;;;;;3.80;2.88;;;12.90;63.80;;;;;;5033852;28;20092;-70
2021/10/17 00:42:41;;;;;;;4.07;2.92;;;12.90;63.80;;;;;;5032728;28;20032;-70
2021/10/17 00:45:10;;;;;;;3.42;2.58;;;12.90;63.70;;;;;;5032812;28;20355;-70
2021/10/17 00:47:36;;;;;;;3.83;2.85;;;12.90;63.90;;;;;;5033932;28;20496;-70
2021/10/17 00:50:03;;;;;;;4.00;2.90;;;12.90;63.90;;;;;;5033768;28;20029;-70
2021/10/17 00:52:29;;;;;;;3.78;2.90;;;12.80;63.80;;;;;;5033853;28;20473;-70
2021/10/17 00:54:55;;;;;;;6.40;2.70;;;12.80;63.80;;;;;;5033902;28;20037;-70
2021/10/17 00:57:20;;;;;;;3.95;2.70;;;12.80;63.70;;;;;;5033706;28;20389;-70
2021/10/17 00:59:46;;;;;;;3.67;2.85;;;12.80;63.50;;;;;;5030468;28;20707;-70
2021/10/17 01:02:13;;;;;;;4.82;2.90;;;12.80;63.50;;;;;;5030985;28;20041;-71
2021/10/17 01:04:39;;;;;;;4.38;3.20;;;12.70;63.70;;;;;;5032066;28;20115;-71
2021/10/17 01:07:06;;;;;;;3.45;3.00;;;12.80;63.50;;;;;;5033283;28;20629;-70
2021/10/17 01:09:34;;;;;;;4.40;2.92;;;12.80;63.50;;;;;;5033251;28;20502;-70
2021/10/17 01:12:00;;;;;;;6.75;3.17;;;12.70;63.60;;;;;;5032993;28;20041;-69
2021/10/17 01:14:26;;;;;;;4.22;3.25;;;12.70;64.00;;;;;;5032826;28;20026;-71
2021/10/17 01:16:52;;;;;;;3.63;2.72;;;12.70;64.20;;;;;;5033164;28;20029;-71
2021/10/17 01:19:20;;;;;;;3.28;2.97;;;12.80;63.90;;;;;;5033005;28;20029;-69
2021/10/17 01:21:47;;;;;;;3.80;3.00;;;12.70;63.60;;;;;;5033125;28;20045;-71
2021/10/17 01:24:13;;;;;;;4.07;2.75;;;12.70;63.60;;;;;;5033515;28;20096;-71
2021/10/17 01:26:40;;;;;;;3.80;2.95;;;12.70;63.90;;;;;;5033172;28;20363;-70
2021/10/17 01:29:06;;;;;;;4.57;3.35;;;12.70;64.30;;;;;;5032830;28;20048;-72
2021/10/17 01:31:38;;;;;;;3.78;2.60;;;12.70;64.30;;;;;;5032954;28;20402;-70
2021/10/17 01:34:05;;;;;;;7.68;3.03;;;12.70;63.70;;;;;;5032941;28;20517;-70
2021/10/17 01:36:32;;;;;;;4.47;3.05;;;12.70;63.60;;;;;;5032833;28;20524;-70
2021/10/17 01:38:58;;;;;;;3.95;2.70;;;12.70;63.80;;;;;;5033091;28;20025;-70
2021/10/17 01:41:24;;;;;;;4.32;3.10;;;12.70;64.50;;;;;;5033160;28;20029;-70
2021/10/17 01:43:50;;;;;;;4.05;2.88;;;;;;;;;;5032661;28;20021;-70
2021/10/17 01:46:16;;;;;;;3.97;2.80;;;12.70;66.70;;;;;;5033033;28;20022;-70
2021/10/17 01:48:42;;;;;;;4.30;2.95;;;12.70;71.40;;;;;;5032817;28;20022;-70
2021/10/17 01:51:07;;;;;;;3.75;2.65;;;12.80;68.40;;;;;;5032598;28;20021;-70
2021/10/17 01:53:33;;;;;;;4.25;2.80;;;12.70;69.40;;;;;;5032712;28;20014;-70
2021/10/17 01:56:00;;;;;;;3.45;3.15;;;12.70;72.80;;;;;;5032499;28;20041;-70
2021/10/17 01:58:26;;;;;;;7.45;3.05;;;12.70;73.90;;;;;;5032572;28;20033;-71
2021/10/17 02:00:52;;;;;;;4.20;2.83;;;12.70;73.50;;;;;;5032398;28;20021;-71
2021/10/17 02:03:18;;;;;;;7.03;3.17;;;12.50;63.60;;;;;;5033019;28;20028;-70
2021/10/17 02:05:44;;;;;;;4.75;3.10;;;12.50;63.60;;;;;;5032795;28;20017;-69
2021/10/17 02:08:10;;;;;;;5.00;2.92;;;12.50;64.00;;;;;;5032747;28;20029;-70
2021/10/17 02:10:35;;;;;;;3.85;2.92;;;12.50;64.30;;;;;;5032762;28;20419;-70
2021/10/17 02:13:02;;;;;;;3.63;3.20;;;12.50;67.40;;;;;;5032677;28;20052;-70
2021/10/17 02:15:27;;;;;;;4.05;2.90;;;12.50;69.60;;;;;;5032621;28;20120;-70
2021/10/17 02:17:53;;;;;;;4.40;3.08;;;12.50;66.70;;;;;;5032583;28;20068;-69
2021/10/17 02:20:19;;;;;;;5.05;3.00;;;12.40;66.10;;;;;;5032698;28;20417;-70
2021/10/17 02:22:45;;;;;;;6.10;3.53;;;12.30;66.60;;;;;;5032797;28;20394;-71
2021/10/17 02:25:11;;;;;;;6.82;3.30;;;12.30;66.40;;;;;;5032555;28;20378;-70
2021/10/17 02:27:36;;;;;;;4.90;3.40;;;12.30;66.00;;;;;;5032432;28;20431;-70
2021/10/17 02:30:04;;;;;;;5.70;3.30;;;12.30;66.20;;;;;;5033045;28;20049;-70
2021/10/17 02:32:30;;;;;;;6.00;2.85;;;12.40;72.10;;;;;;5032423;28;20076;-71
2021/10/17 02:34:56;;;;;;;3.55;3.03;;;12.20;64.80;;;;;;5032576;28;20386;-70
2021/10/17 02:37:21;;;;;;;6.07;2.80;;;12.10;65.10;;;;;;5033193;28;20025;-70
2021/10/17 02:39:47;;;;;;;4.22;3.35;;;12.10;65.10;;;;;;5036090;28;20025;-70
2021/10/17 02:42:13;;;;;;;3.95;3.05;;;12.20;68.40;;;;;;5036429;28;20033;-70
2021/10/17 02:44:38;;;;;;;3.28;2.80;;;12.10;74.20;;;;;;5036499;28;20033;-70
2021/10/17 02:47:04;;;;;;;4.40;2.80;;;;;;;;;;5036315;28;20072;-70
2021/10/17 02:49:30;;;;;;;3.58;2.72;;;12.10;70.00;;;;;;5036254;28;20032;-70
2021/10/17 02:51:55;;;;;;;3.45;2.72;;;12.10;70.20;;;;;;5036142;28;20072;-70
2021/10/17 02:54:21;;;;;;;4.63;2.95;;;12.00;69.90;;;;;;5035931;28;20025;-70
2021/10/17 02:56:47;;;;;;;4.22;3.13;;;12.00;67.70;;;;;;5035922;28;20033;-70
2021/10/17 02:59:13;;;;;;;3.50;2.45;;;11.80;66.20;;;;;;5036306;28;20032;-70
2021/10/17 03:01:38;;;;;;;4.10;2.65;;;11.80;66.90;;;;;;5036040;28;20084;-69
2021/10/17 03:04:04;;;;;;;3.55;2.88;;;11.80;66.40;;;;;;5035832;28;20022;-69
2021/10/17 03:06:29;;;;;;;4.72;2.80;;;11.80;66.00;;;;;;5035802;28;20469;-70
2021/10/17 03:08:55;;;;;;;5.53;2.90;;;11.80;66.20;;;;;;5035975;28;20033;-70
2021/10/17 03:11:21;;;;;;;3.58;2.63;;;11.80;66.00;;;;;;5035733;28;20026;-70
2021/10/17 03:13:48;;;;;;;4.15;2.70;;;11.80;66.20;;;;;;5035773;28;20034;-70
2021/10/17 03:16:13;;;;;;;3.63;2.60;;;11.80;66.50;;;;;;5035505;28;20037;-70
2021/10/17 03:18:40;;;;;;;5.20;2.72;;;11.80;66.70;;;;;;5035567;28;20083;-69
2021/10/17 03:21:05;;;;;;;3.20;2.50;;;11.70;66.40;;;;;;5035354;28;20431;-72
2021/10/17 03:23:31;;;;;;;3.25;2.50;;;11.70;67.00;;;;;;5034659;28;20029;-69
2021/10/17 03:25:57;;;;;;;4.00;2.85;;;11.70;66.80;;;;;;5035543;28;20029;-69
2021/10/17 03:28:23;;;;;;;3.78;2.80;;;11.70;66.80;;;;;;5035224;28;20022;-69
2021/10/17 03:30:51;;;;;;;3.83;2.95;;;11.70;67.00;;;;;;5035144;28;20045;-70
2021/10/17 03:33:17;;;;;;;3.95;2.60;;;11.60;66.90;;;;;;5035301;28;20034;-69
2021/10/17 03:35:43;;;;;;;4.07;2.80;;;11.60;67.20;;;;;;5035436;28;20121;-70
2021/10/17 03:38:09;;;;;;;2.85;2.50;;;11.60;67.20;;;;;;5035350;28;21009;-69
2021/10/17 03:40:35;;;;;;;3.85;2.70;;;11.60;66.90;;;;;;5035354;28;20029;-70
2021/10/17 03:43:00;;;;;;;3.58;2.70;;;11.50;67.00;;;;;;5035231;28;20501;-69
2021/10/17 03:45:26;;;;;;;3.65;2.78;;;11.50;67.20;;;;;;5035210;28;20065;-69
2021/10/17 03:47:52;;;;;;;6.03;2.88;;;11.50;67.40;;;;;;5034951;28;20060;-70
2021/10/17 03:50:17;;;;;;;4.63;3.13;;;11.50;67.30;;;;;;5034972;28;20473;-69
2021/10/17 03:52:43;;;;;;;5.18;3.17;;;11.50;67.30;;;;;;5034989;28;20029;-69
2021/10/17 03:55:09;;;;;;;5.95;2.80;;;11.50;67.50;;;;;;5035019;28;20040;-70
2021/10/17 03:57:35;;;;;;;6.60;2.97;;;11.50;67.70;;;;;;5035083;28;20512;-69
2021/10/17 04:00:00;;;;;;;7.07;2.70;;;11.40;67.70;;;;;;5034984;28;20100;-69
2021/10/17 04:02:26;;;;;;;4.32;2.97;;;11.40;68.30;;;;;;5034804;28;20026;-69
2021/10/17 04:04:52;;;;;;;3.42;2.67;;;11.40;68.40;;;;;;5034498;28;20071;-70
2021/10/17 04:07:18;;;;;;;3.72;3.00;;;11.40;68.60;;;;;;5034897;28;20037;-70
2021/10/17 04:09:43;;;;;;;4.15;3.25;;;11.50;68.60;;;;;;5035017;28;20025;-71
2021/10/17 04:12:09;;;;;;;5.28;2.88;;;11.50;68.40;;;;;;5034613;28;20457;-70
2021/10/17 04:14:35;;;;;;;4.00;2.75;;;11.50;68.60;;;;;;5034530;28;20038;-70
2021/10/17 04:17:00;;;;;;;3.88;3.22;;;11.50;68.70;;;;;;5034514;28;20112;-70
2021/10/17 04:19:26;;;;;;;5.43;2.70;;;11.40;68.80;;;;;;5034645;28;20064;-70
2021/10/17 04:21:52;;;;;;;4.35;3.25;;;11.40;68.90;;;;;;5034454;28;20040;-70
2021/10/17 04:24:17;;;;;;;3.88;3.20;;;11.40;68.70;;;;;;5034492;28;20378;-69
2021/10/17 04:26:43;;;;;;;3.72;3.30;;;11.40;68.90;;;;;;5034186;28;20021;-69
2021/10/17 04:29:09;;;;;;;5.38;3.45;;;11.40;68.90;;;;;;5034214;28;20017;-69
2021/10/17 04:31:34;;;;;;;3.85;3.08;;;11.40;69.00;;;;;;5034147;28;20080;-70
2021/10/17 04:34:00;;;;;;;4.20;3.35;;;11.40;68.60;;;;;;5034218;28;20025;-69
2021/10/17 04:36:26;;;;;;;5.05;3.30;;;11.40;68.60;;;;;;5033965;28;20033;-70
2021/10/17 04:38:51;;;;;;;3.75;3.00;;;11.50;68.90;;;;;;5034139;28;20143;-71
2021/10/17 04:41:18;;;;;;;6.10;3.60;;;11.40;68.60;;;;;;5034110;28;20025;-70
2021/10/17 04:43:44;;;;;;;4.95;3.60;;;11.40;68.90;;;;;;5033973;28;20031;-69
2021/10/17 04:46:10;;;;;;;4.88;3.10;;;11.40;68.70;;;;;;5033499;28;20018;-70
2021/10/17 04:48:35;;;;;;;4.47;3.22;;;11.50;68.60;;;;;;5033367;28;20500;-69
2021/10/17 04:51:01;;;;;;;6.13;3.33;;;11.40;68.10;;;;;;5033766;28;20386;-70
2021/10/17 04:53:27;;;;;;;5.35;3.70;;;11.40;68.40;;;;;;5033695;28;20064;-70
2021/10/17 04:55:52;;;;;;;6.10;3.60;;;11.40;68.50;;;;;;5033752;28;20044;-71
2021/10/17 04:58:18;;;;;;;8.50;3.30;;;11.40;68.60;;;;;;5033452;28;20029;-70
2021/10/17 05:00:44;;;;;;;4.35;3.35;;;11.40;68.80;;;;;;5033253;28;20075;-70
2021/10/17 05:03:09;;;;;;;5.15;3.60;;;11.40;68.70;;;;;;5032845;28;20386;-70
2021/10/17 05:05:35;;;;;;;5.40;3.63;;;11.40;68.60;;;;;;5032793;28;20104;-69
2021/10/17 05:08:01;;;;;;;5.10;3.50;;;11.40;68.50;;;;;;5032331;28;20552;-70
2021/10/17 05:10:27;;;;;;;4.65;3.50;;;11.50;68.80;;;;;;5032038;28;20100;-70
2021/10/17 05:12:52;;;;;;;5.55;3.28;;;11.40;68.90;;;;;;5032887;28;20470;-71
2021/10/17 05:15:18;;;;;;;4.18;3.40;;;11.50;69.10;;;;;;5031851;28;20025;-70
2021/10/17 05:17:44;;;;;;;4.85;3.47;;;11.50;69.00;;;;;;5030494;28;20466;-70
2021/10/17 05:20:10;;;;;;;5.15;3.63;;;11.50;69.00;;;;;;5032270;28;20041;-72
2021/10/17 05:22:36;;;;;;;4.97;3.45;;;11.50;68.90;;;;;;5032210;28;20044;-70
2021/10/17 05:25:02;;;;;;;4.18;3.45;;;11.50;68.60;;;;;;5031840;28;20018;-70
2021/10/17 05:27:27;;;;;;;7.88;4.15;;;11.50;68.60;;;;;;5033406;28;20078;-71
2021/10/17 05:29:53;;;;;;;4.25;3.47;;;11.50;68.90;;;;;;5032796;28;20033;-71
2021/10/17 05:32:20;;;;;;;4.55;3.20;;;11.60;68.60;;;;;;5032813;28;20052;-70
2021/10/17 05:34:46;;;;;;;3.30;2.85;;;11.50;68.30;;;;;;5031714;28;20053;-70
2021/10/17 05:37:12;;;;;;;3.70;3.38;;;11.50;68.40;;;;;;5031312;28;20480;-76
2021/10/17 05:39:37;;;;;;;4.70;3.10;;;11.50;68.40;;;;;;5031873;28;20025;-72
2021/10/17 05:42:04;;;;;;;4.55;3.53;;;11.30;68.50;;;;;;5032899;28;20025;-70
2021/10/17 05:44:30;;;;;;;3.78;3.38;;;11.40;68.70;;;;;;5032370;28;20020;-70
2021/10/17 05:46:56;;;;;;;4.57;3.78;;;11.40;68.50;;;;;;5032529;28;20499;-70
2021/10/17 05:49:22;;;;;;;5.03;3.42;;;11.30;68.50;;;;;;5032676;28;20116;-70
2021/10/17 05:51:47;;;;;;;6.45;3.58;;;11.40;68.70;;;;;;5032469;28;20097;-70
2021/10/17 05:54:13;;;;;;;4.68;3.22;;;11.30;68.80;;;;;;5032974;28;20025;-71
2021/10/17 05:56:39;;;;;;;4.30;3.15;;;11.30;68.30;;;;;;5032765;28;20037;-70
2021/10/17 05:59:08;;;;;;;4.45;3.30;;;11.30;68.70;;;;;;5031968;28;20481;-71
2021/10/17 06:01:37;;;;;;;5.07;3.20;;;11.30;68.90;;;;;;5032431;28;20431;-70
2021/10/17 06:04:03;;;;;;;3.65;2.90;;;11.30;68.90;;;;;;5031415;28;20022;-70
2021/10/17 06:06:29;;;;;;;4.45;3.15;;;11.30;69.30;;;;;;5028311;28;20460;-67
2021/10/17 06:08:57;;;;;;;4.57;2.95;;;11.30;69.30;;;;;;5029402;28;20018;-73
2021/10/17 06:11:22;;;;;;;3.63;2.95;;;11.30;70.00;;;;;;5029851;28;20025;-73
2021/10/17 06:13:48;;;;;;;4.45;3.38;;;11.30;69.80;;;;;;5035913;28;20030;-73
2021/10/17 06:16:14;;;;;;;4.10;3.13;;;11.40;69.50;;;;;;5036606;28;20061;-72
2021/10/17 06:18:39;;;;;;;4.18;3.17;;;11.40;69.50;;;;;;5036782;28;20021;-69
2021/10/17 06:21:07;;;;;;;4.78;3.03;;;11.40;69.60;;;;;;5036497;28;20033;-69
2021/10/17 06:23:34;;;;;;;5.60;3.50;;;11.50;69.90;;;;;;5036715;28;20017;-69
2021/10/17 06:26:00;;;;;;;4.38;3.08;;;11.50;70.00;;;;;;5036436;28;20037;-70
2021/10/17 06:28:26;;;;;;;4.22;3.20;;;11.60;70.90;;;;;;5034223;28;20062;-70
2021/10/17 06:30:52;;;;;;;3.83;3.05;;;11.60;70.30;;;;;;5033089;28;20056;-69
2021/10/17 06:33:18;;;;;;;4.43;3.25;;;11.60;70.90;;;;;;5034933;28;20025;-68
2021/10/17 06:35:43;;;;;;;6.85;3.80;;;11.70;70.10;;;;;;5036385;28;20087;-69
2021/10/17 06:38:09;;;;;;;4.28;3.20;;;11.80;69.80;;;;;;5036176;28;20032;-68
2021/10/17 06:40:35;;;;;;;6.53;3.30;;;11.90;69.80;;;;;;5036212;28;20462;-68
2021/10/17 06:43:02;;;;;;;5.43;3.58;;;11.90;70.00;;;;;;5036119;28;20033;-68
2021/10/17 06:45:28;;;;;;;4.47;3.40;;;12.00;70.00;;;;;;5036375;28;20026;-69
2021/10/17 06:47:53;;;;;;;4.95;3.45;;;12.00;69.90;;;;;;5035797;28;20362;-68
2021/10/17 06:50:20;;;;;;;4.35;2.97;;;;;;;;;;5034757;28;20041;-69
2021/10/17 06:52:50;;;;;;;8.07;3.22;;;12.20;69.70;;;;;;5034769;28;20025;-69
2021/10/17 06:55:17;;;;;;;5.68;3.40;;;12.30;70.20;;;;;;5035578;28;20482;-69
2021/10/17 06:57:44;;;;;;;3.97;3.22;;;12.40;69.70;;;;;;5035052;28;20036;-68
2021/10/17 07:00:10;;;;;;;5.75;3.78;;;12.40;68.70;;;;;;5035025;28;20096;-69
2021/10/17 07:02:35;;;;;;;4.55;3.20;;;12.50;68.30;;;;;;5034845;28;20017;-68
2021/10/17 07:05:01;;;;;;;4.07;3.08;;;12.60;68.30;;;;;;5023606;28;20110;-68
2021/10/17 07:07:27;;;;;;;6.65;3.22;;;12.80;71.20;;;;;;5034365;28;20033;-75
2021/10/17 07:09:52;;;;;;;4.53;3.30;;;12.80;67.30;;;;;;5035541;28;20196;-69
2021/10/17 07:12:18;;;;;;;8.68;3.55;;;;;;;;;;5034754;28;20029;-68
2021/10/17 07:14:44;;;;;;;8.82;3.63;;;13.00;66.60;;;;;;5033270;28;20031;-72
2021/10/17 07:17:10;;;;;;;3.83;3.13;;;13.00;66.40;;;;;;5033311;28;20025;-77
2021/10/17 07:19:35;;;;;;;6.70;3.53;;;13.10;65.90;;;;;;5033670;28;20052;-74
2021/10/17 07:22:01;;;;;;;5.82;3.78;;;13.20;65.80;;;;;;5033724;28;20022;-72
2021/10/17 07:24:27;;;;;;;4.55;3.88;;;13.30;65.40;;;;;;5030573;28;20095;-71
2021/10/17 07:26:52;;;;;;;4.40;3.70;;;13.30;65.10;;;;;;5031985;28;20100;-70
2021/10/17 07:29:18;;;;;;;5.22;3.33;;;13.40;65.30;;;;;;5033556;28;20022;-72
2021/10/17 07:31:44;;;;;;;5.97;3.83;;;13.50;65.20;;;;;;5033371;28;20045;-70
2021/10/17 07:34:10;;;;;;;5.50;3.92;;;13.50;65.10;;;;;;5033737;28;20029;-68
2021/10/17 07:36:36;;;;;;;4.85;3.80;;;13.60;64.70;;;;;;5032234;28;20045;-70
2021/10/17 07:39:02;;;;;;;5.07;3.45;;;13.70;64.50;;;;;;5033646;28;20104;-70
2021/10/17 07:41:28;;;;;;;4.20;3.13;;;13.80;64.10;;;;;;5033678;28;20032;-70
2021/10/17 07:43:53;;;;;;;5.03;3.50;;;13.80;64.10;;;;;;5033144;28;20017;-73
2021/10/17 07:46:19;;;;;;;5.57;3.15;;;13.90;64.00;;;;;;5033252;28;20026;-69
2021/10/17 07:48:45;;;;;;;5.28;3.22;;;14.00;64.00;;;;;;5033441;28;20021;-73
2021/10/17 07:51:10;;;;;;;4.35;3.30;;;14.10;64.10;;;;;;5033083;28;20025;-70
2021/10/17 07:53:36;;;;;;;4.95;3.22;;;14.10;63.80;;;;;;5032660;28;20492;-69
2021/10/17 07:56:02;;;;;;;6.93;3.35;;;14.20;63.70;;;;;;5033859;28;20389;-71
2021/10/17 07:58:27;;;;;;;4.10;3.00;;;14.30;64.00;;;;;;5033980;28;20028;-68
2021/10/17 08:00:53;;;;;;;4.28;3.00;;;14.30;63.70;;;;;;5034121;28;20096;-70
2021/10/17 08:03:20;;;;;;;3.58;2.95;;;14.40;63.40;;;;;;5034571;28;20029;-69
2021/10/17 08:05:45;;;;;;;4.43;2.55;;;14.50;63.20;;;;;;5034073;28;20108;-70
2021/10/17 08:08:11;;;;;;;3.95;2.97;;;14.60;62.90;;;;;;5030496;28;20120;-69
2021/10/17 08:10:37;;;;;;;3.47;2.72;;;14.60;62.30;;;;;;5031437;28;20482;-70
2021/10/17 08:13:03;;;;;;;5.07;2.78;;;14.70;61.50;;;;;;5031594;28;20086;-69
2021/10/17 08:15:29;;;;;;;4.18;2.75;;;14.80;61.10;;;;;;5034379;28;20072;-69
2021/10/17 08:17:55;;;;;;;2.55;2.17;;;14.80;60.90;;;;;;5034077;28;20056;-69
2021/10/17 08:20:21;;;;;;;3.08;2.53;;;14.90;60.60;;;;;;5034284;28;20061;-70
2021/10/17 08:22:47;;;;;;;3.47;2.70;;;15.00;60.60;;;;;;5034197;28;20032;-70
2021/10/17 08:25:13;;;;;;;3.60;2.47;;;15.00;59.70;;;;;;5033886;28;20442;-70
2021/10/17 08:27:41;;;;;;;5.00;2.42;;;15.10;59.40;;;;;;5034130;28;20102;-68
2021/10/17 08:30:08;;;;;;;5.57;2.50;;;15.10;59.40;;;;;;5034069;28;20082;-70
2021/10/17 08:32:34;;;;;;;3.80;2.50;;;15.20;59.50;;;;;;5032435;28;20053;-69
2021/10/17 08:35:00;;;;;;;3.80;2.28;;;15.20;59.50;;;;;;5028768;28;20033;-70
2021/10/17 08:37:25;;;;;;;3.67;2.15;;;15.30;59.30;;;;;;5030820;28;20076;-69
2021/10/17 08:39:52;;;;;;;4.90;2.00;;;15.40;59.30;;;;;;5033752;28;20024;-69
2021/10/17 08:42:18;;;;;;;2.67;2.00;;;15.50;58.10;;;;;;5033217;28;20037;-69
2021/10/17 08:44:45;;;;;;;3.50;2.20;;;15.60;58.00;;;;;;5033022;28;20047;-69
2021/10/17 08:47:13;;;;;;;2.47;2.00;;;15.60;57.60;;;;;;5034327;28;20025;-70
2021/10/17 08:49:41;;;;;;;3.20;2.03;;;15.70;57.50;;;;;;5033175;28;20103;-70
2021/10/17 08:52:10;;;;;;;3.92;2.20;;;15.70;57.80;;;;;;5032691;28;20426;-69
2021/10/17 08:54:39;;;;;;;3.10;1.92;;;15.80;57.30;;;;;;5031457;28;20032;-69
2021/10/17 08:57:04;;;;;;;2.33;1.80;;;15.90;57.00;;;;;;5033909;28;20536;-70
2021/10/17 08:59:30;;;;;;;2.60;2.08;;;16.00;56.80;;;;;;5030836;28;20025;-69
2021/10/17 09:01:56;;;;;;;2.20;1.90;;;16.10;56.80;;;;;;5031097;28;20063;-70
2021/10/17 09:04:29;;;;;;;3.22;1.90;;;16.10;56.80;;;;;;5031817;28;20032;-68
2021/10/17 09:06:54;;;;;;;;;;;16.20;56.60;;;;;;5033791;28;20072;-70
2021/10/17 09:09:20;;;;;;;2.70;2.15;;;16.20;56.00;;;;;;5033659;28;19909;-69
2021/10/17 09:11:58;;;;;;;2.70;2.00;;;16.30;55.80;;;;;;5033780;28;20117;-70
2021/10/17 09:14:27;;;;;;;2.53;2.13;;;16.40;55.80;;;;;;5033226;28;20029;-70
2021/10/17 09:16:55;;;;;;;2.47;1.92;;;16.50;55.40;;;;;;5033659;28;20026;-67
2021/10/17 09:19:32;;;;;;;3.13;2.00;;;16.50;55.00;;;;;;5033275;28;20021;-70
2021/10/17 09:22:06;;;;;;;2.72;1.77;;;16.60;55.30;;;;;;5033270;28;20021;-71
2021/10/17 09:24:40;;;;;;;4.28;2.17;;;16.70;55.30;;;;;;5033434;28;20021;-72
2021/10/17 09:27:19;;;;;;;2.80;1.90;;;16.70;55.00;;;;;;5033309;28;20466;-69
2021/10/17 09:29:54;;;;;;;3.13;1.90;;;16.80;55.70;;;;;;5031751;28;20045;-70
2021/10/17 09:32:23;;;;;;;2.22;1.90;;;16.90;54.50;;;;;;5032893;28;20050;-70
2021/10/17 09:34:59;;;;;;;4.38;2.10;;;17.00;53.00;;;;;;5033098;28;20021;-70
2021/10/17 09:37:39;;;;;;;2.92;1.77;;;17.00;52.50;;;;;;5033212;28;20401;-69
2021/10/17 09:40:06;;;;;;;2.40;1.70;;;17.10;52.60;;;;;;5033124;28;20033;-70
2021/10/17 09:42:39;;;;;;;3.17;1.77;;;17.20;52.50;;;;;;5033121;28;20045;-70
2021/10/17 09:45:22;;;;;;;2.03;1.60;;;17.20;51.50;;;;;;5033275;28;20343;-70
2021/10/17 09:47:48;;;;;;;2.17;1.75;;;17.30;51.80;;;;;;5033085;28;20021;-69
2021/10/17 09:50:15;;;;;;;2.35;1.70;;;17.40;51.80;;;;;;5033313;28;20101;-70
2021/10/17 09:52:57;;;;;;;2.67;1.80;;;17.40;52.10;;;;;;5033010;28;20494;-70
2021/10/17 09:55:24;;;;;;;2.53;1.92;;;17.50;52.00;;;;;;5032969;28;20120;-70
2021/10/17 09:57:51;;;;;;;3.03;1.80;;;17.60;52.10;;;;;;5033173;28;20113;-70
2021/10/17 10:00:17;;;;;;;2.10;1.63;;;17.60;50.90;;;;;;5032988;28;20485;-70
2021/10/17 10:02:47;;;;;;;4.57;1.98;;;17.70;50.90;;;;;;5033047;28;20022;-69
2021/10/17 10:05:29;;;;;;;3.83;1.98;;;17.70;50.70;;;;;;5033065;28;20025;-70
2021/10/17 10:08:03;;;;;;;2.10;1.50;;;17.80;51.20;;;;;;5032990;28;20041;-70
2021/10/17 10:10:31;;;;;;;2.08;1.60;;;17.90;51.10;;;;;;5032990;28;20470;-70
2021/10/17 10:12:58;;;;;;;2.90;1.63;;;17.90;50.50;;;;;;5033109;28;20038;-69
2021/10/17 10:15:25;;;;;;;2.90;1.65;;;18.00;50.80;;;;;;5032610;28;20029;-70
2021/10/17 10:17:52;;;;;;;3.25;1.70;;;18.10;50.20;;;;;;5032823;28;20389;-70
2021/10/17 10:20:21;;;;;;;4.63;1.92;;;18.10;50.50;;;;;;5032785;28;20462;-70
2021/10/17 10:22:47;;;;;;;5.20;1.88;;;18.20;49.60;;;;;;5032878;28;20373;-71
2021/10/17 10:25:15;;;;;;;4.40;1.83;;;18.20;49.70;;;;;;5033025;28;20017;-70
2021/10/17 10:27:41;;;;;;;2.33;1.67;;;18.30;49.80;;;;;;5032705;28;20445;-70
2021/10/17 10:30:41;;;;;;;3.40;1.80;;;18.40;50.20;;;;;;5032576;28;20377;-69
2021/10/17 10:33:06;;;;;;;4.20;1.85;;;18.40;49.90;;;;;;5032418;28;20068;-70
2021/10/17 10:35:33;;;;;;;2.85;1.65;;;18.50;49.60;;;;;;5032665;28;20033;-70
2021/10/17 10:37:58;;;;;;;4.82;1.90;;;18.60;49.00;;;;;;5032039;28;20425;-70
2021/10/17 10:40:24;;;;;;;3.40;1.55;;;18.60;48.90;;;;;;5032311;28;20036;-70
2021/10/17 10:42:52;;;;;;;1.98;1.60;;;18.70;48.10;;;;;;5031785;28;20033;-70
2021/10/17 10:45:33;;;;;;;2.40;1.85;;;18.70;48.30;;;;;;5032193;28;20099;-70
2021/10/17 10:48:10;;;;;;;3.53;1.60;;;18.80;48.70;;;;;;5030700;28;20033;-69
2021/10/17 10:50:40;;;;;;;1.80;1.58;;;18.80;47.90;;;;;;5031266;28;20398;-69
2021/10/17 10:53:08;;;;;;;2.95;1.40;;;18.90;47.40;;;;;;5032171;28;20478;-70
2021/10/17 10:55:49;;;;;;;2.33;1.65;;;19.00;47.40;;;;;;5031936;28;20565;-70
2021/10/17 10:58:36;;;;;;;3.88;1.92;;;19.10;47.00;;;;;;5031621;28;20029;-70
2021/10/17 11:01:02;;;;;;;3.20;1.80;;;19.10;47.00;;;;;;5033286;28;20375;-70
2021/10/17 11:03:43;;;;;;;2.65;1.58;;;19.20;46.40;;;;;;5033222;28;20025;-70
2021/10/17 11:06:09;;;;;;;3.70;1.63;;;19.20;47.10;;;;;;5035797;28;20381;-70
2021/10/17 11:08:40;;;;;;;2.47;1.50;;;19.30;46.20;;;;;;5035898;28;20097;-69
2021/10/17 11:11:07;;;;;;;3.05;1.65;;;19.30;46.00;;;;;;5036171;28;20033;-69
2021/10/17 11:13:36;;;;;;;4.03;1.60;;;19.30;46.30;;;;;;5035672;28;20025;-71
2021/10/17 11:16:04;;;;;;;2.33;1.70;;;19.40;46.80;;;;;;5033030;28;20049;-72
2021/10/17 11:18:40;;;;;;;1.92;1.63;;;19.40;45.80;;;;;;5032849;28;20518;-72
2021/10/17 11:21:08;;;;;;;1.55;1.45;;;19.50;45.90;;;;;;5033350;28;20033;-72
2021/10/17 11:23:40;;;;;;;4.38;1.60;;;19.60;45.50;;;;;;5035604;28;20053;-72
2021/10/17 11:26:11;;;;;;;2.42;1.60;;;19.70;46.50;;;;;;5035660;28;20079;-73
2021/10/17 11:28:39;;;;;;;2.38;2.10;;;19.70;45.50;;;;;;5035587;28;20092;-72
2021/10/17 11:31:14;;;;;;;4.00;1.67;;;19.80;45.90;;;;;;5035097;28;20041;-73
2021/10/17 11:33:43;;;;;;;3.83;1.70;;;19.90;46.10;;;;;;5035505;28;20024;-72
2021/10/17 11:36:11;;;;;;;2.28;1.50;;;20.00;45.60;;;;;;5035268;28;20033;-73
2021/10/17 11:38:37;;;;;;;1.70;1.50;;;20.10;44.10;;;;;;5035048;28;20032;-71
2021/10/17 11:41:14;;;;;;;2.83;1.30;;;20.10;44.10;;;;;;5034980;28;20025;-70
2021/10/17 11:43:43;;;;;;;2.25;1.42;;;20.10;43.30;;;;;;5033445;28;20049;-70
2021/10/17 11:46:12;;;;;;;6.22;1.70;;;20.20;44.10;;;;;;5032379;28;20026;-69
2021/10/17 11:48:39;;;;;;;2.25;1.50;;;20.30;43.40;;;;;;5032359;28;20044;-69
2021/10/17 11:51:09;;;;;;;2.38;1.80;;;20.30;43.20;;;;;;5031462;28;20339;-69
2021/10/17 11:53:34;;;;;;;2.08;1.65;;;20.40;43.80;;;;;;5034983;28;20029;-71
2021/10/17 11:56:01;;;;;;;2.90;1.52;;;20.40;42.90;;;;;;5034940;28;20033;-70
2021/10/17 11:58:29;;;;;;;1.92;1.50;;;20.40;43.10;;;;;;5034895;28;20078;-70
2021/10/17 12:00:57;;;;;;;2.72;1.20;;;20.50;42.10;;;;;;5034730;28;20041;-70
2021/10/17 12:03:25;;;;;;;2.38;1.35;;;20.50;41.60;;;;;;5034998;28;20022;-70
2021/10/17 12:05:53;;;;;;;1.73;1.45;;;20.60;41.60;;;;;;5034648;28;20038;-70
2021/10/17 12:08:21;;;;;;;1.77;1.50;;;20.60;41.40;;;;;;5034499;28;20021;-70
2021/10/17 12:11:10;;;;;;;2.50;1.55;;;20.70;42.00;;;;;;5034614;28;20033;-71
2021/10/17 12:13:43;;;;;;;2.63;1.77;;;20.70;41.20;;;;;;5034842;28;20049;-70
2021/10/17 12:16:17;;;;;;;1.17;1.08;;;20.70;42.00;;;;;;5034725;28;20059;-70
2021/10/17 12:18:49;;;;;;;2.75;1.40;;;20.80;42.60;;;;;;5034647;28;20064;-70
2021/10/17 12:21:30;;;;;;;3.42;1.58;;;20.80;41.70;;;;;;5034604;28;20113;-70
2021/10/17 12:23:57;;;;;;;3.60;1.30;;;20.80;41.50;;;;;;5033305;28;20022;-70
2021/10/17 12:26:29;;;;;;;2.17;1.50;;;20.80;41.30;;;;;;5033763;28;20107;-69
2021/10/17 12:29:03;;;;;;;1.33;1.23;;;20.90;41.00;;;;;;5034158;28;20013;-70
2021/10/17 12:31:33;;;;;;;2.63;1.63;;;20.90;41.10;;;;;;5032709;28;20064;-69
2021/10/17 12:34:00;;;;;;;6.15;1.60;;;21.00;40.20;;;;;;5034627;28;20064;-70
2021/10/17 12:36:27;;;;;;;1.50;1.40;;;20.90;40.40;;;;;;5034511;28;20053;-71
2021/10/17 12:39:03;;;;;;;1.55;1.40;;;21.00;40.30;;;;;;5034482;28;20104;-70
2021/10/17 12:41:30;;;;;;;1.30;1.20;;;21.00;40.30;;;;;;5034042;28;20036;-70
2021/10/17 12:44:03;;;;;;;1.65;1.33;;;21.00;40.70;;;;;;5034309;28;20035;-70
2021/10/17 12:46:29;;;;;;;1.80;1.23;;;21.00;40.10;;;;;;5034052;28;20033;-70
2021/10/17 12:48:55;;;;;;;1.70;1.23;;;21.00;40.30;;;;;;5034260;28;20482;-75